sensor_id;sensor_type;location;lat;lon;timestamp;P1;durP1;ratioP1;P2;durP2;ratioP2
48765;SDS011;65794;51.836;5.002;2023-02-05T00:00:07;64.25;;;25.42;;
48765;SDS011;65794;51.836;5.002;2023-02-05T00:02:34;58.42;;;26.13;;
48765;SDS011;65794;51.836;5.002;2023-02-05T00:05:01;54.88;;;24.25;;
48765;SDS011;65794;51.836;5.002;2023-02-05T00:07:28;62.15;;;25.02;;
48765;SDS011;65794;51.836;5.002;2023-02-05T00:09:55;66.22;;;25.90;;
48765;SDS011;65794;51.836;5.002;2023-02-05T00:12:22;61.55;;;25.63;;
48765;SDS011;65794;51.836;5.002;2023-02-05T00:14:49;68.63;;;27.25;;
48765;SDS011;65794;51.836;5.002;2023-02-05T00:17:16;61.05;;;25.52;;
48765;SDS011;65794;51.836;5.002;2023-02-05T00:19:43;64.50;;;25.25;;
48765;SDS011;65794;51.836;5.002;2023-02-05T00:22:09;55.75;;;25.10;;
48765;SDS011;65794;51.836;5.002;2023-02-05T00:24:36;63.85;;;24.38;;
48765;SDS011;65794;51.836;5.002;2023-02-05T00:27:03;68.65;;;24.80;;
48765;SDS011;65794;51.836;5.002;2023-02-05T00:29:30;66.07;;;24.70;;
48765;SDS011;65794;51.836;5.002;2023-02-05T00:31:59;56.60;;;23.77;;
48765;SDS011;65794;51.836;5.002;2023-02-05T00:34:25;55.60;;;23.35;;
48765;SDS011;65794;51.836;5.002;2023-02-05T00:36:52;54.67;;;23.25;;
48765;SDS011;65794;51.836;5.002;2023-02-05T00:39:21;56.40;;;23.95;;
48765;SDS011;65794;51.836;5.002;2023-02-05T00:41:47;53.70;;;22.85;;
48765;SDS011;65794;51.836;5.002;2023-02-05T00:44:14;61.42;;;24.15;;
48765;SDS011;65794;51.836;5.002;2023-02-05T00:46:42;50.53;;;23.70;;
48765;SDS011;65794;51.836;5.002;2023-02-05T00:49:09;59.13;;;23.65;;
48765;SDS011;65794;51.836;5.002;2023-02-05T00:51:36;55.78;;;23.27;;
48765;SDS011;65794;51.836;5.002;2023-02-05T00:54:03;54.22;;;23.15;;
48765;SDS011;65794;51.836;5.002;2023-02-05T00:56:30;63.90;;;25.50;;
48765;SDS011;65794;51.836;5.002;2023-02-05T00:58:57;58.58;;;24.20;;
48765;SDS011;65794;51.836;5.002;2023-02-05T01:01:25;56.80;;;24.17;;
48765;SDS011;65794;51.836;5.002;2023-02-05T01:03:52;66.82;;;25.95;;
48765;SDS011;65794;51.836;5.002;2023-02-05T01:06:19;64.18;;;27.23;;
48765;SDS011;65794;51.836;5.002;2023-02-05T01:08:46;69.20;;;27.35;;
48765;SDS011;65794;51.836;5.002;2023-02-05T01:11:13;74.00;;;28.27;;
48765;SDS011;65794;51.836;5.002;2023-02-05T01:13:40;64.47;;;27.10;;
48765;SDS011;65794;51.836;5.002;2023-02-05T01:16:08;73.40;;;29.80;;
48765;SDS011;65794;51.836;5.002;2023-02-05T01:18:36;71.05;;;28.75;;
48765;SDS011;65794;51.836;5.002;2023-02-05T01:21:03;68.30;;;27.23;;
48765;SDS011;65794;51.836;5.002;2023-02-05T01:23:30;71.05;;;28.05;;
48765;SDS011;65794;51.836;5.002;2023-02-05T01:25:57;65.60;;;27.55;;
48765;SDS011;65794;51.836;5.002;2023-02-05T01:28:24;69.20;;;27.25;;
48765;SDS011;65794;51.836;5.002;2023-02-05T01:30:52;70.68;;;27.48;;
48765;SDS011;65794;51.836;5.002;2023-02-05T01:33:19;64.45;;;28.00;;
48765;SDS011;65794;51.836;5.002;2023-02-05T01:35:46;72.68;;;29.00;;
48765;SDS011;65794;51.836;5.002;2023-02-05T01:38:13;76.03;;;30.88;;
48765;SDS011;65794;51.836;5.002;2023-02-05T01:40:41;84.32;;;30.83;;
48765;SDS011;65794;51.836;5.002;2023-02-05T01:43:10;81.30;;;29.02;;
48765;SDS011;65794;51.836;5.002;2023-02-05T01:48:09;81.93;;;29.23;;
48765;SDS011;65794;51.836;5.002;2023-02-05T01:50:58;79.40;;;29.80;;
48765;SDS011;65794;51.836;5.002;2023-02-05T01:53:28;80.28;;;30.08;;
48765;SDS011;65794;51.836;5.002;2023-02-05T01:55:58;81.03;;;29.73;;
48765;SDS011;65794;51.836;5.002;2023-02-05T01:58:26;77.43;;;28.88;;
48765;SDS011;65794;51.836;5.002;2023-02-05T02:00:55;78.22;;;28.92;;
48765;SDS011;65794;51.836;5.002;2023-02-05T02:03:22;74.05;;;28.58;;
48765;SDS011;65794;51.836;5.002;2023-02-05T02:05:50;79.28;;;29.00;;
48765;SDS011;65794;51.836;5.002;2023-02-05T02:08:17;68.65;;;27.95;;
48765;SDS011;65794;51.836;5.002;2023-02-05T02:10:44;64.20;;;27.08;;
48765;SDS011;65794;51.836;5.002;2023-02-05T02:13:12;68.93;;;26.98;;
48765;SDS011;65794;51.836;5.002;2023-02-05T02:15:39;65.13;;;26.48;;
48765;SDS011;65794;51.836;5.002;2023-02-05T02:18:06;57.33;;;23.98;;
48765;SDS011;65794;51.836;5.002;2023-02-05T02:28:49;45.10;;;19.23;;
48765;SDS011;65794;51.836;5.002;2023-02-05T02:31:38;50.35;;;19.50;;
48765;SDS011;65794;51.836;5.002;2023-02-05T02:34:10;40.33;;;16.85;;
48765;SDS011;65794;51.836;5.002;2023-02-05T02:36:46;47.75;;;17.05;;
48765;SDS011;65794;51.836;5.002;2023-02-05T02:39:18;38.08;;;15.85;;
48765;SDS011;65794;51.836;5.002;2023-02-05T02:41:50;34.70;;;14.77;;
48765;SDS011;65794;51.836;5.002;2023-02-05T02:44:36;32.90;;;13.80;;
48765;SDS011;65794;51.836;5.002;2023-02-05T02:47:15;27.77;;;12.55;;
48765;SDS011;65794;51.836;5.002;2023-02-05T02:49:56;29.60;;;13.38;;
48765;SDS011;65794;51.836;5.002;2023-02-05T02:52:24;36.35;;;13.15;;
48765;SDS011;65794;51.836;5.002;2023-02-05T02:54:54;34.38;;;12.13;;
48765;SDS011;65794;51.836;5.002;2023-02-05T02:57:23;29.98;;;11.68;;
48765;SDS011;65794;51.836;5.002;2023-02-05T02:59:53;23.80;;;9.70;;
48765;SDS011;65794;51.836;5.002;2023-02-05T03:02:20;22.65;;;8.73;;
48765;SDS011;65794;51.836;5.002;2023-02-05T03:04:50;21.05;;;7.82;;
48765;SDS011;65794;51.836;5.002;2023-02-05T03:07:24;23.83;;;7.75;;
48765;SDS011;65794;51.836;5.002;2023-02-05T03:09:57;20.10;;;7.05;;
48765;SDS011;65794;51.836;5.002;2023-02-05T03:12:26;17.67;;;6.45;;
48765;SDS011;65794;51.836;5.002;2023-02-05T03:14:54;14.60;;;6.65;;
48765;SDS011;65794;51.836;5.002;2023-02-05T03:17:22;14.88;;;6.60;;
48765;SDS011;65794;51.836;5.002;2023-02-05T03:19:52;14.85;;;5.85;;
48765;SDS011;65794;51.836;5.002;2023-02-05T03:22:22;16.08;;;6.05;;
48765;SDS011;65794;51.836;5.002;2023-02-05T03:24:49;13.77;;;5.80;;
48765;SDS011;65794;51.836;5.002;2023-02-05T03:27:17;9.70;;;5.32;;
48765;SDS011;65794;51.836;5.002;2023-02-05T03:29:45;16.70;;;5.72;;
48765;SDS011;65794;51.836;5.002;2023-02-05T03:42:35;11.85;;;5.00;;
48765;SDS011;65794;51.836;5.002;2023-02-05T03:53:11;12.82;;;4.47;;
48765;SDS011;65794;51.836;5.002;2023-02-05T03:55:41;10.55;;;3.90;;
48765;SDS011;65794;51.836;5.002;2023-02-05T03:58:12;11.95;;;4.35;;
48765;SDS011;65794;51.836;5.002;2023-02-05T04:00:40;10.00;;;3.83;;
48765;SDS011;65794;51.836;5.002;2023-02-05T04:03:09;15.25;;;3.38;;
48765;SDS011;65794;51.836;5.002;2023-02-05T04:05:37;8.32;;;3.20;;
48765;SDS011;65794;51.836;5.002;2023-02-05T04:08:06;11.38;;;3.20;;
48765;SDS011;65794;51.836;5.002;2023-02-05T04:10:40;7.90;;;3.38;;
48765;SDS011;65794;51.836;5.002;2023-02-05T04:13:07;9.45;;;3.47;;
48765;SDS011;65794;51.836;5.002;2023-02-05T04:15:36;11.45;;;3.60;;
48765;SDS011;65794;51.836;5.002;2023-02-05T04:18:06;10.13;;;4.05;;
48765;SDS011;65794;51.836;5.002;2023-02-05T04:20:33;20.73;;;4.50;;
48765;SDS011;65794;51.836;5.002;2023-02-05T04:23:01;13.60;;;4.55;;
48765;SDS011;65794;51.836;5.002;2023-02-05T04:25:30;15.50;;;4.28;;
48765;SDS011;65794;51.836;5.002;2023-02-05T04:27:59;14.23;;;5.20;;
48765;SDS011;65794;51.836;5.002;2023-02-05T04:30:27;25.88;;;5.32;;
48765;SDS011;65794;51.836;5.002;2023-02-05T04:32:53;21.08;;;6.15;;
48765;SDS011;65794;51.836;5.002;2023-02-05T04:35:20;11.85;;;5.25;;
48765;SDS011;65794;51.836;5.002;2023-02-05T04:37:48;26.60;;;6.80;;
48765;SDS011;65794;51.836;5.002;2023-02-05T04:40:15;21.15;;;6.75;;
48765;SDS011;65794;51.836;5.002;2023-02-05T04:42:42;19.10;;;6.78;;
48765;SDS011;65794;51.836;5.002;2023-02-05T04:45:09;17.55;;;7.30;;
48765;SDS011;65794;51.836;5.002;2023-02-05T04:47:37;21.10;;;8.00;;
48765;SDS011;65794;51.836;5.002;2023-02-05T04:50:04;21.92;;;7.72;;
48765;SDS011;65794;51.836;5.002;2023-02-05T04:52:31;29.38;;;9.55;;
48765;SDS011;65794;51.836;5.002;2023-02-05T04:54:57;25.73;;;9.27;;
48765;SDS011;65794;51.836;5.002;2023-02-05T04:57:24;30.60;;;10.23;;
48765;SDS011;65794;51.836;5.002;2023-02-05T04:59:51;24.77;;;10.02;;
48765;SDS011;65794;51.836;5.002;2023-02-05T05:02:18;33.17;;;11.63;;
48765;SDS011;65794;51.836;5.002;2023-02-05T05:04:45;23.67;;;10.55;;
48765;SDS011;65794;51.836;5.002;2023-02-05T05:07:11;30.55;;;11.45;;
48765;SDS011;65794;51.836;5.002;2023-02-05T05:09:38;34.15;;;11.25;;
48765;SDS011;65794;51.836;5.002;2023-02-05T05:12:05;19.85;;;8.27;;
48765;SDS011;65794;51.836;5.002;2023-02-05T05:14:32;13.40;;;5.80;;
48765;SDS011;65794;51.836;5.002;2023-02-05T05:16:59;6.53;;;3.17;;
48765;SDS011;65794;51.836;5.002;2023-02-05T05:19:26;7.63;;;3.50;;
48765;SDS011;65794;51.836;5.002;2023-02-05T05:21:53;6.72;;;2.45;;
48765;SDS011;65794;51.836;5.002;2023-02-05T05:24:20;7.32;;;2.15;;
48765;SDS011;65794;51.836;5.002;2023-02-05T05:26:46;5.45;;;0.98;;
48765;SDS011;65794;51.836;5.002;2023-02-05T05:29:13;3.92;;;1.13;;
48765;SDS011;65794;51.836;5.002;2023-02-05T05:31:40;6.40;;;1.25;;
48765;SDS011;65794;51.836;5.002;2023-02-05T05:34:07;5.38;;;1.05;;
48765;SDS011;65794;51.836;5.002;2023-02-05T05:36:34;7.35;;;1.30;;
48765;SDS011;65794;51.836;5.002;2023-02-05T05:39:01;10.85;;;1.55;;
48765;SDS011;65794;51.836;5.002;2023-02-05T05:41:46;12.80;;;1.17;;
48765;SDS011;65794;51.836;5.002;2023-02-05T05:44:32;9.15;;;1.17;;
48765;SDS011;65794;51.836;5.002;2023-02-05T05:46:59;7.85;;;0.95;;
48765;SDS011;65794;51.836;5.002;2023-02-05T05:49:25;7.30;;;1.13;;
48765;SDS011;65794;51.836;5.002;2023-02-05T05:51:52;8.30;;;1.25;;
48765;SDS011;65794;51.836;5.002;2023-02-05T05:54:19;8.95;;;1.52;;
48765;SDS011;65794;51.836;5.002;2023-02-05T05:56:46;11.52;;;1.65;;
48765;SDS011;65794;51.836;5.002;2023-02-05T05:59:15;13.57;;;1.73;;
48765;SDS011;65794;51.836;5.002;2023-02-05T06:01:42;12.90;;;1.33;;
48765;SDS011;65794;51.836;5.002;2023-02-05T06:04:08;15.60;;;1.70;;
48765;SDS011;65794;51.836;5.002;2023-02-05T06:06:35;10.27;;;1.40;;
48765;SDS011;65794;51.836;5.002;2023-02-05T06:09:03;14.52;;;1.13;;
48765;SDS011;65794;51.836;5.002;2023-02-05T06:11:30;14.65;;;1.42;;
48765;SDS011;65794;51.836;5.002;2023-02-05T06:13:57;10.35;;;1.52;;
48765;SDS011;65794;51.836;5.002;2023-02-05T06:16:23;5.35;;;0.63;;
48765;SDS011;65794;51.836;5.002;2023-02-05T06:18:50;10.55;;;1.30;;
48765;SDS011;65794;51.836;5.002;2023-02-05T06:21:17;13.27;;;1.13;;
48765;SDS011;65794;51.836;5.002;2023-02-05T06:23:44;6.35;;;1.33;;
48765;SDS011;65794;51.836;5.002;2023-02-05T06:26:11;10.85;;;1.27;;
48765;SDS011;65794;51.836;5.002;2023-02-05T06:28:38;5.82;;;1.00;;
48765;SDS011;65794;51.836;5.002;2023-02-05T06:31:05;21.02;;;1.67;;
48765;SDS011;65794;51.836;5.002;2023-02-05T06:33:32;10.57;;;1.27;;
48765;SDS011;65794;51.836;5.002;2023-02-05T06:35:58;8.52;;;1.33;;
48765;SDS011;65794;51.836;5.002;2023-02-05T06:38:25;16.33;;;1.45;;
48765;SDS011;65794;51.836;5.002;2023-02-05T06:40:52;14.70;;;1.27;;
48765;SDS011;65794;51.836;5.002;2023-02-05T06:43:19;7.43;;;0.90;;
48765;SDS011;65794;51.836;5.002;2023-02-05T06:45:46;9.02;;;1.00;;
48765;SDS011;65794;51.836;5.002;2023-02-05T06:48:12;11.63;;;1.42;;
48765;SDS011;65794;51.836;5.002;2023-02-05T06:50:39;3.88;;;0.32;;
48765;SDS011;65794;51.836;5.002;2023-02-05T06:53:07;13.68;;;0.98;;
48765;SDS011;65794;51.836;5.002;2023-02-05T06:55:36;9.43;;;1.00;;
48765;SDS011;65794;51.836;5.002;2023-02-05T06:58:03;4.57;;;0.88;;
48765;SDS011;65794;51.836;5.002;2023-02-05T07:00:30;19.25;;;1.42;;
48765;SDS011;65794;51.836;5.002;2023-02-05T07:02:58;9.38;;;1.30;;
48765;SDS011;65794;51.836;5.002;2023-02-05T07:05:24;9.40;;;1.50;;
48765;SDS011;65794;51.836;5.002;2023-02-05T07:07:51;5.55;;;1.17;;
48765;SDS011;65794;51.836;5.002;2023-02-05T07:10:19;12.02;;;1.40;;
48765;SDS011;65794;51.836;5.002;2023-02-05T07:12:46;20.70;;;1.38;;
48765;SDS011;65794;51.836;5.002;2023-02-05T07:15:13;12.38;;;2.22;;
48765;SDS011;65794;51.836;5.002;2023-02-05T07:17:40;20.67;;;1.95;;
48765;SDS011;65794;51.836;5.002;2023-02-05T07:20:07;16.38;;;1.63;;
48765;SDS011;65794;51.836;5.002;2023-02-05T07:22:34;13.40;;;1.40;;
48765;SDS011;65794;51.836;5.002;2023-02-05T07:25:00;12.05;;;1.35;;
48765;SDS011;65794;51.836;5.002;2023-02-05T07:27:30;14.88;;;1.70;;
48765;SDS011;65794;51.836;5.002;2023-02-05T07:29:56;9.50;;;1.30;;
48765;SDS011;65794;51.836;5.002;2023-02-05T07:32:23;20.40;;;2.20;;
48765;SDS011;65794;51.836;5.002;2023-02-05T07:34:50;8.23;;;1.23;;
48765;SDS011;65794;51.836;5.002;2023-02-05T07:37:19;17.85;;;1.95;;
48765;SDS011;65794;51.836;5.002;2023-02-05T07:39:47;12.55;;;1.48;;
48765;SDS011;65794;51.836;5.002;2023-02-05T07:42:14;9.75;;;1.17;;
48765;SDS011;65794;51.836;5.002;2023-02-05T07:44:48;6.43;;;1.05;;
48765;SDS011;65794;51.836;5.002;2023-02-05T07:47:14;6.10;;;0.68;;
48765;SDS011;65794;51.836;5.002;2023-02-05T07:49:41;11.90;;;1.50;;
48765;SDS011;65794;51.836;5.002;2023-02-05T07:52:09;14.80;;;1.80;;
48765;SDS011;65794;51.836;5.002;2023-02-05T07:54:35;16.77;;;1.70;;
48765;SDS011;65794;51.836;5.002;2023-02-05T07:57:02;19.13;;;1.95;;
48765;SDS011;65794;51.836;5.002;2023-02-05T07:59:32;17.10;;;1.50;;
48765;SDS011;65794;51.836;5.002;2023-02-05T08:01:59;19.88;;;1.40;;
48765;SDS011;65794;51.836;5.002;2023-02-05T08:04:26;13.00;;;0.88;;
48765;SDS011;65794;51.836;5.002;2023-02-05T08:06:53;11.77;;;1.42;;
48765;SDS011;65794;51.836;5.002;2023-02-05T08:09:19;19.42;;;2.22;;
48765;SDS011;65794;51.836;5.002;2023-02-05T08:11:46;18.77;;;2.90;;
48765;SDS011;65794;51.836;5.002;2023-02-05T08:14:13;21.25;;;2.00;;
48765;SDS011;65794;51.836;5.002;2023-02-05T08:16:40;14.20;;;1.63;;
48765;SDS011;65794;51.836;5.002;2023-02-05T08:19:08;18.08;;;1.80;;
48765;SDS011;65794;51.836;5.002;2023-02-05T08:21:38;11.00;;;1.50;;
48765;SDS011;65794;51.836;5.002;2023-02-05T08:24:05;19.67;;;2.40;;
48765;SDS011;65794;51.836;5.002;2023-02-05T08:26:32;27.30;;;2.67;;
48765;SDS011;65794;51.836;5.002;2023-02-05T08:28:59;13.27;;;1.98;;
48765;SDS011;65794;51.836;5.002;2023-02-05T08:31:26;14.00;;;1.58;;
48765;SDS011;65794;51.836;5.002;2023-02-05T08:33:53;15.52;;;2.30;;
48765;SDS011;65794;51.836;5.002;2023-02-05T08:36:22;19.65;;;2.38;;
48765;SDS011;65794;51.836;5.002;2023-02-05T08:38:48;14.15;;;1.45;;
48765;SDS011;65794;51.836;5.002;2023-02-05T08:41:15;18.70;;;1.95;;
48765;SDS011;65794;51.836;5.002;2023-02-05T08:43:43;22.00;;;2.75;;
48765;SDS011;65794;51.836;5.002;2023-02-05T08:46:11;20.23;;;2.58;;
48765;SDS011;65794;51.836;5.002;2023-02-05T08:48:38;19.38;;;3.05;;
48765;SDS011;65794;51.836;5.002;2023-02-05T08:51:05;19.63;;;2.47;;
48765;SDS011;65794;51.836;5.002;2023-02-05T08:53:32;17.17;;;2.65;;
48765;SDS011;65794;51.836;5.002;2023-02-05T08:56:00;19.70;;;2.88;;
48765;SDS011;65794;51.836;5.002;2023-02-05T08:58:27;24.52;;;3.03;;
48765;SDS011;65794;51.836;5.002;2023-02-05T09:01:00;25.58;;;4.13;;
48765;SDS011;65794;51.836;5.002;2023-02-05T09:03:28;16.88;;;2.13;;
48765;SDS011;65794;51.836;5.002;2023-02-05T09:05:56;19.95;;;2.55;;
48765;SDS011;65794;51.836;5.002;2023-02-05T09:08:24;26.15;;;3.72;;
48765;SDS011;65794;51.836;5.002;2023-02-05T09:10:58;16.73;;;2.93;;
48765;SDS011;65794;51.836;5.002;2023-02-05T09:13:26;30.70;;;4.03;;
48765;SDS011;65794;51.836;5.002;2023-02-05T09:15:54;30.13;;;3.80;;
48765;SDS011;65794;51.836;5.002;2023-02-05T09:18:20;21.33;;;3.47;;
48765;SDS011;65794;51.836;5.002;2023-02-05T09:20:48;19.33;;;2.35;;
48765;SDS011;65794;51.836;5.002;2023-02-05T09:23:15;21.30;;;2.35;;
48765;SDS011;65794;51.836;5.002;2023-02-05T09:25:42;19.20;;;2.97;;
48765;SDS011;65794;51.836;5.002;2023-02-05T09:28:11;26.52;;;3.42;;
48765;SDS011;65794;51.836;5.002;2023-02-05T09:30:39;27.17;;;4.03;;
48765;SDS011;65794;51.836;5.002;2023-02-05T09:33:06;21.48;;;2.38;;
48765;SDS011;65794;51.836;5.002;2023-02-05T09:35:34;14.70;;;1.85;;
48765;SDS011;65794;51.836;5.002;2023-02-05T09:38:02;17.73;;;2.72;;
48765;SDS011;65794;51.836;5.002;2023-02-05T09:40:31;20.30;;;2.97;;
48765;SDS011;65794;51.836;5.002;2023-02-05T09:45:59;17.02;;;2.47;;
48765;SDS011;65794;51.836;5.002;2023-02-05T09:48:38;23.63;;;3.08;;
48765;SDS011;65794;51.836;5.002;2023-02-05T09:51:08;22.33;;;3.00;;
48765;SDS011;65794;51.836;5.002;2023-02-05T09:53:37;21.52;;;2.88;;
48765;SDS011;65794;51.836;5.002;2023-02-05T09:56:06;26.13;;;3.53;;
48765;SDS011;65794;51.836;5.002;2023-02-05T09:58:33;28.77;;;3.45;;
48765;SDS011;65794;51.836;5.002;2023-02-05T10:01:06;21.67;;;3.10;;
48765;SDS011;65794;51.836;5.002;2023-02-05T10:11:05;21.85;;;2.97;;
48765;SDS011;65794;51.836;5.002;2023-02-05T10:13:40;31.58;;;4.00;;
48765;SDS011;65794;51.836;5.002;2023-02-05T10:21:34;12.85;;;1.92;;
48765;SDS011;65794;51.836;5.002;2023-02-05T10:26:54;26.27;;;3.97;;
48765;SDS011;65794;51.836;5.002;2023-02-05T10:34:43;28.60;;;4.10;;
48765;SDS011;65794;51.836;5.002;2023-02-05T10:37:14;21.42;;;3.55;;
48765;SDS011;65794;51.836;5.002;2023-02-05T10:39:42;25.85;;;3.08;;
48765;SDS011;65794;51.836;5.002;2023-02-05T10:42:18;21.65;;;4.00;;
48765;SDS011;65794;51.836;5.002;2023-02-05T10:44:48;22.77;;;3.22;;
48765;SDS011;65794;51.836;5.002;2023-02-05T10:47:17;17.00;;;2.70;;
48765;SDS011;65794;51.836;5.002;2023-02-05T10:52:12;24.67;;;3.05;;
48765;SDS011;65794;51.836;5.002;2023-02-05T10:54:40;26.92;;;3.20;;
48765;SDS011;65794;51.836;5.002;2023-02-05T10:57:11;19.08;;;2.90;;
48765;SDS011;65794;51.836;5.002;2023-02-05T10:59:40;23.40;;;3.25;;
48765;SDS011;65794;51.836;5.002;2023-02-05T11:02:11;20.98;;;2.75;;
48765;SDS011;65794;51.836;5.002;2023-02-05T11:04:41;20.90;;;3.10;;
48765;SDS011;65794;51.836;5.002;2023-02-05T11:07:11;27.35;;;4.28;;
48765;SDS011;65794;51.836;5.002;2023-02-05T11:09:39;24.95;;;3.40;;
48765;SDS011;65794;51.836;5.002;2023-02-05T11:12:14;19.60;;;2.47;;
48765;SDS011;65794;51.836;5.002;2023-02-05T11:19:59;26.50;;;3.58;;
48765;SDS011;65794;51.836;5.002;2023-02-05T11:22:36;21.08;;;3.28;;
48765;SDS011;65794;51.836;5.002;2023-02-05T11:27:59;20.10;;;2.35;;
48765;SDS011;65794;51.836;5.002;2023-02-05T11:30:34;7.70;;;1.02;;
48765;SDS011;65794;51.836;5.002;2023-02-05T11:36:04;19.88;;;2.28;;
48765;SDS011;65794;51.836;5.002;2023-02-05T11:38:33;23.95;;;3.60;;
48765;SDS011;65794;51.836;5.002;2023-02-05T11:41:02;28.10;;;3.40;;
48765;SDS011;65794;51.836;5.002;2023-02-05T11:43:33;11.60;;;2.40;;
48765;SDS011;65794;51.836;5.002;2023-02-05T11:46:01;18.50;;;2.47;;
48765;SDS011;65794;51.836;5.002;2023-02-05T11:48:31;18.95;;;2.42;;
48765;SDS011;65794;51.836;5.002;2023-02-05T11:51:00;28.70;;;2.97;;
48765;SDS011;65794;51.836;5.002;2023-02-05T11:53:27;18.60;;;3.08;;
48765;SDS011;65794;51.836;5.002;2023-02-05T11:55:56;26.10;;;3.13;;
48765;SDS011;65794;51.836;5.002;2023-02-05T11:58:27;20.65;;;2.97;;
48765;SDS011;65794;51.836;5.002;2023-02-05T12:01:19;8.35;;;1.60;;
48765;SDS011;65794;51.836;5.002;2023-02-05T12:03:56;13.77;;;2.20;;
48765;SDS011;65794;51.836;5.002;2023-02-05T12:06:24;18.60;;;2.65;;
48765;SDS011;65794;51.836;5.002;2023-02-05T12:08:54;21.73;;;2.60;;
48765;SDS011;65794;51.836;5.002;2023-02-05T12:14:27;21.95;;;3.15;;
48765;SDS011;65794;51.836;5.002;2023-02-05T12:17:06;21.42;;;2.65;;
48765;SDS011;65794;51.836;5.002;2023-02-05T12:19:50;25.98;;;2.13;;
48765;SDS011;65794;51.836;5.002;2023-02-05T12:30:01;22.83;;;2.92;;
48765;SDS011;65794;51.836;5.002;2023-02-05T12:35:19;12.90;;;2.42;;
48765;SDS011;65794;51.836;5.002;2023-02-05T12:38:36;18.60;;;2.80;;
48765;SDS011;65794;51.836;5.002;2023-02-05T12:48:44;16.38;;;2.50;;
48765;SDS011;65794;51.836;5.002;2023-02-05T13:01:41;23.65;;;2.83;;
48765;SDS011;65794;51.836;5.002;2023-02-05T13:04:17;15.07;;;1.85;;
48765;SDS011;65794;51.836;5.002;2023-02-05T13:06:50;19.08;;;2.65;;
48765;SDS011;65794;51.836;5.002;2023-02-05T13:09:19;19.10;;;3.17;;
48765;SDS011;65794;51.836;5.002;2023-02-05T13:11:59;12.65;;;1.90;;
48765;SDS011;65794;51.836;5.002;2023-02-05T13:14:29;20.98;;;3.08;;
48765;SDS011;65794;51.836;5.002;2023-02-05T13:17:10;15.20;;;2.25;;
48765;SDS011;65794;51.836;5.002;2023-02-05T13:22:45;21.23;;;3.20;;
48765;SDS011;65794;51.836;5.002;2023-02-05T13:28:21;13.50;;;2.65;;
48765;SDS011;65794;51.836;5.002;2023-02-05T13:33:45;8.80;;;1.85;;
48765;SDS011;65794;51.836;5.002;2023-02-05T13:51:46;14.18;;;1.90;;
48765;SDS011;65794;51.836;5.002;2023-02-05T13:55:22;14.67;;;2.03;;
48765;SDS011;65794;51.836;5.002;2023-02-05T14:00:02;22.23;;;2.30;;
48765;SDS011;65794;51.836;5.002;2023-02-05T14:02:41;14.00;;;2.78;;
48765;SDS011;65794;51.836;5.002;2023-02-05T14:05:08;20.63;;;3.00;;
48765;SDS011;65794;51.836;5.002;2023-02-05T14:07:38;21.80;;;2.42;;
48765;SDS011;65794;51.836;5.002;2023-02-05T14:10:21;17.73;;;2.42;;
48765;SDS011;65794;51.836;5.002;2023-02-05T14:12:49;23.20;;;3.00;;
48765;SDS011;65794;51.836;5.002;2023-02-05T14:22:52;18.27;;;2.80;;
48765;SDS011;65794;51.836;5.002;2023-02-05T14:38:42;19.90;;;3.05;;
48765;SDS011;65794;51.836;5.002;2023-02-05T14:41:11;20.27;;;2.95;;
48765;SDS011;65794;51.836;5.002;2023-02-05T14:43:39;22.38;;;3.17;;
48765;SDS011;65794;51.836;5.002;2023-02-05T14:48:52;20.77;;;2.90;;
48765;SDS011;65794;51.836;5.002;2023-02-05T14:51:24;24.25;;;3.47;;
48765;SDS011;65794;51.836;5.002;2023-02-05T14:53:56;16.95;;;2.67;;
48765;SDS011;65794;51.836;5.002;2023-02-05T14:56:25;20.73;;;3.08;;
48765;SDS011;65794;51.836;5.002;2023-02-05T14:58:58;22.65;;;3.40;;
48765;SDS011;65794;51.836;5.002;2023-02-05T15:03:54;23.85;;;3.60;;
48765;SDS011;65794;51.836;5.002;2023-02-05T15:06:22;17.25;;;2.47;;
48765;SDS011;65794;51.836;5.002;2023-02-05T15:08:52;29.00;;;3.50;;
48765;SDS011;65794;51.836;5.002;2023-02-05T15:11:23;20.77;;;3.33;;
48765;SDS011;65794;51.836;5.002;2023-02-05T15:16:39;36.47;;;4.18;;
48765;SDS011;65794;51.836;5.002;2023-02-05T15:19:07;32.40;;;3.88;;
48765;SDS011;65794;51.836;5.002;2023-02-05T15:21:38;29.42;;;4.90;;
48765;SDS011;65794;51.836;5.002;2023-02-05T15:24:13;20.52;;;2.95;;
48765;SDS011;65794;51.836;5.002;2023-02-05T15:26:43;25.10;;;2.97;;
48765;SDS011;65794;51.836;5.002;2023-02-05T15:31:44;20.25;;;3.63;;
48765;SDS011;65794;51.836;5.002;2023-02-05T15:34:20;30.75;;;3.33;;
48765;SDS011;65794;51.836;5.002;2023-02-05T15:36:51;22.50;;;3.72;;
48765;SDS011;65794;51.836;5.002;2023-02-05T15:39:24;27.38;;;4.55;;
48765;SDS011;65794;51.836;5.002;2023-02-05T15:41:53;29.27;;;4.30;;
48765;SDS011;65794;51.836;5.002;2023-02-05T15:44:28;24.50;;;4.10;;
48765;SDS011;65794;51.836;5.002;2023-02-05T15:46:59;31.52;;;4.20;;
48765;SDS011;65794;51.836;5.002;2023-02-05T15:49:31;32.35;;;4.88;;
48765;SDS011;65794;51.836;5.002;2023-02-05T15:52:00;39.53;;;4.60;;
48765;SDS011;65794;51.836;5.002;2023-02-05T15:54:27;23.48;;;4.43;;
48765;SDS011;65794;51.836;5.002;2023-02-05T15:56:54;28.27;;;4.65;;
48765;SDS011;65794;51.836;5.002;2023-02-05T15:59:25;30.42;;;3.42;;
48765;SDS011;65794;51.836;5.002;2023-02-05T16:02:01;29.85;;;3.60;;
48765;SDS011;65794;51.836;5.002;2023-02-05T16:04:36;31.17;;;4.20;;
48765;SDS011;65794;51.836;5.002;2023-02-05T16:07:17;35.95;;;4.47;;
48765;SDS011;65794;51.836;5.002;2023-02-05T16:09:45;27.23;;;3.50;;
48765;SDS011;65794;51.836;5.002;2023-02-05T16:12:13;32.22;;;3.97;;
48765;SDS011;65794;51.836;5.002;2023-02-05T16:14:40;27.23;;;3.97;;
48765;SDS011;65794;51.836;5.002;2023-02-05T16:17:18;28.70;;;4.80;;
48765;SDS011;65794;51.836;5.002;2023-02-05T16:22:28;40.88;;;4.47;;
48765;SDS011;65794;51.836;5.002;2023-02-05T16:24:57;31.48;;;5.53;;
48765;SDS011;65794;51.836;5.002;2023-02-05T16:29:54;29.75;;;5.45;;
48765;SDS011;65794;51.836;5.002;2023-02-05T16:34:49;32.25;;;5.47;;
48765;SDS011;65794;51.836;5.002;2023-02-05T16:37:16;41.08;;;5.97;;
48765;SDS011;65794;51.836;5.002;2023-02-05T16:39:50;29.67;;;4.25;;
48765;SDS011;65794;51.836;5.002;2023-02-05T16:45:21;27.92;;;4.35;;
48765;SDS011;65794;51.836;5.002;2023-02-05T16:50:40;41.00;;;5.60;;
48765;SDS011;65794;51.836;5.002;2023-02-05T16:53:16;41.80;;;5.20;;
48765;SDS011;65794;51.836;5.002;2023-02-05T16:55:44;38.60;;;3.97;;
48765;SDS011;65794;51.836;5.002;2023-02-05T16:58:15;35.17;;;5.30;;
48765;SDS011;65794;51.836;5.002;2023-02-05T17:00:49;31.13;;;4.13;;
48765;SDS011;65794;51.836;5.002;2023-02-05T17:03:16;31.13;;;4.40;;
48765;SDS011;65794;51.836;5.002;2023-02-05T17:05:45;33.50;;;5.63;;
48765;SDS011;65794;51.836;5.002;2023-02-05T17:08:18;35.72;;;5.45;;
48765;SDS011;65794;51.836;5.002;2023-02-05T17:13:28;29.25;;;4.72;;
48765;SDS011;65794;51.836;5.002;2023-02-05T17:15:55;29.25;;;4.15;;
48765;SDS011;65794;51.836;5.002;2023-02-05T17:20:49;40.65;;;6.30;;
48765;SDS011;65794;51.836;5.002;2023-02-05T17:23:16;25.83;;;4.65;;
48765;SDS011;65794;51.836;5.002;2023-02-05T17:25:50;32.75;;;5.25;;
48765;SDS011;65794;51.836;5.002;2023-02-05T17:28:20;28.88;;;4.93;;
48765;SDS011;65794;51.836;5.002;2023-02-05T17:30:50;31.90;;;4.55;;
48765;SDS011;65794;51.836;5.002;2023-02-05T17:33:19;40.15;;;4.90;;
48765;SDS011;65794;51.836;5.002;2023-02-05T17:35:46;36.92;;;4.72;;
48765;SDS011;65794;51.836;5.002;2023-02-05T17:38:13;28.13;;;3.92;;
48765;SDS011;65794;51.836;5.002;2023-02-05T17:40:42;33.72;;;4.78;;